createdAt,value
2023-05-04T00:03:31.242Z,14.42
2023-05-04T00:08:33.802Z,14.36
2023-05-04T00:13:36.425Z,14.32
2023-05-04T00:18:39.566Z,14.17
2023-05-04T00:23:42.349Z,14.05
2023-05-04T00:28:44.968Z,13.95
2023-05-04T00:33:47.903Z,13.81
2023-05-04T00:38:52.571Z,13.69
2023-05-04T00:43:55.049Z,13.54
2023-05-04T00:48:59.721Z,13.52
2023-05-04T00:54:02.422Z,13.38
2023-05-04T00:59:05.001Z,13.31
2023-05-04T01:04:07.796Z,13.24
2023-05-04T01:09:25.674Z,13.25
2023-05-04T01:14:30.407Z,13.16
2023-05-04T01:19:33.787Z,13.12
2023-05-04T01:24:38.849Z,13.06
2023-05-04T01:30:00.476Z,13.08
2023-05-04T01:35:03.681Z,13.04
2023-05-04T01:40:07.185Z,13.00
2023-05-04T01:45:10.286Z,13.03
2023-05-04T01:50:13.861Z,13.02
2023-05-04T01:55:16.563Z,13.04
2023-05-04T02:00:19.384Z,13.00
2023-05-04T02:05:22.047Z,13.07
2023-05-04T02:10:24.610Z,13.18
2023-05-04T02:15:27.273Z,13.53
2023-05-04T02:20:31.210Z,13.84
2023-05-04T02:25:33.698Z,14.20
2023-05-04T02:30:36.342Z,14.48
2023-05-04T02:35:39.056Z,14.92
2023-05-04T02:40:41.835Z,15.26
2023-05-04T02:45:44.445Z,15.62
2023-05-04T02:50:47.070Z,16.03
2023-05-04T02:55:49.921Z,16.46
2023-05-04T03:00:56.450Z,16.88
2023-05-04T03:05:58.986Z,17.28
2023-05-04T03:11:01.562Z,17.86
2023-05-04T03:16:05.956Z,18.25
2023-05-04T03:21:08.831Z,18.70
2023-05-04T03:26:11.903Z,19.22
2023-05-04T03:31:14.515Z,19.38
2023-05-04T03:36:17.662Z,19.97
2023-05-04T03:41:21.207Z,20.46
2023-05-04T03:46:23.825Z,21.00
2023-05-04T03:51:28.087Z,21.54
2023-05-04T03:56:30.836Z,22.09
2023-05-04T04:01:34.096Z,22.48
2023-05-04T04:06:38.092Z,23.37
2023-05-04T04:11:41.073Z,23.78
2023-05-04T04:16:43.792Z,23.95
2023-05-04T04:21:46.428Z,24.21
2023-05-04T04:26:48.916Z,24.53
2023-05-04T04:31:51.981Z,24.98
2023-05-04T04:36:54.690Z,25.09
2023-05-04T04:41:57.323Z,25.80
2023-05-04T04:46:59.888Z,26.86
2023-05-04T04:52:03.143Z,27.24
2023-05-04T04:57:06.345Z,27.60
2023-05-04T05:02:09.949Z,27.77
2023-05-04T05:07:12.529Z,27.86
2023-05-04T05:12:15.018Z,27.61
2023-05-04T05:17:18.428Z,28.29
2023-05-04T05:22:21.193Z,28.87
2023-05-04T05:27:23.688Z,28.91
2023-05-04T05:32:26.239Z,28.98
2023-05-04T05:37:28.806Z,29.22
2023-05-04T05:42:31.329Z,29.45
2023-05-04T05:47:33.942Z,29.54
2023-05-04T05:52:36.665Z,29.86
2023-05-04T05:57:39.146Z,30.08
2023-05-04T06:02:42.060Z,29.70
2023-05-04T06:07:44.398Z,30.20
2023-05-04T06:12:47.407Z,30.40
2023-05-04T06:17:50.132Z,30.49
2023-05-04T06:22:52.607Z,31.34
2023-05-04T06:27:55.026Z,30.81
2023-05-04T06:32:57.694Z,31.80
2023-05-04T06:38:00.235Z,31.29
2023-05-04T06:43:02.749Z,30.30
2023-05-04T06:48:05.549Z,31.40
2023-05-04T06:53:09.288Z,31.61
2023-05-04T06:58:12.232Z,31.36
2023-05-04T07:03:15.135Z,31.43
2023-05-04T07:08:18.149Z,31.32
2023-05-04T07:13:20.941Z,31.58
2023-05-04T07:18:23.386Z,31.60
2023-05-04T07:23:25.818Z,31.76
2023-05-04T07:28:28.408Z,32.39
2023-05-04T07:33:31.301Z,31.94
2023-05-04T07:38:34.234Z,32.34
2023-05-04T07:43:37.793Z,32.13
2023-05-04T07:48:41.609Z,32.14
2023-05-04T07:53:44.294Z,32.32
2023-05-04T07:58:47.889Z,32.97
2023-05-04T08:03:50.545Z,33.12
2023-05-04T08:08:53.158Z,32.33
2023-05-04T08:13:55.443Z,32.97
2023-05-04T08:18:57.944Z,32.81
2023-05-04T08:24:00.727Z,32.84
2023-05-04T08:29:13.526Z,33.43
2023-05-04T08:34:16.819Z,33.76
2023-05-04T08:39:19.666Z,33.84
2023-05-04T08:44:23.077Z,33.85
2023-05-04T08:49:27.206Z,33.68
2023-05-04T08:54:30.287Z,32.88
2023-05-04T08:59:33.641Z,33.48
2023-05-04T09:04:36.548Z,33.14
2023-05-04T09:09:39.097Z,33.68
2023-05-04T09:14:41.944Z,34.13
2023-05-04T09:19:45.118Z,33.89
2023-05-04T09:24:48.068Z,33.68
2023-05-04T09:29:54.492Z,33.72
2023-05-04T09:34:57.085Z,33.44
2023-05-04T09:40:01.007Z,33.17
2023-05-04T09:45:06.390Z,33.44
2023-05-04T09:50:20.893Z,33.14
2023-05-04T09:55:25.541Z,33.37
2023-05-04T10:00:28.801Z,33.52
2023-05-04T10:05:31.683Z,33.44
2023-05-04T10:10:36.300Z,33.31
2023-05-04T10:16:02.047Z,33.23
2023-05-04T10:21:26.753Z,33.52
2023-05-04T10:26:48.019Z,32.93
2023-05-04T10:31:51.477Z,32.81
2023-05-04T10:36:54.236Z,32.24
2023-05-04T10:42:00.687Z,31.94
2023-05-04T10:47:08.473Z,31.51
2023-05-04T10:52:16.551Z,31.19
2023-05-04T10:57:19.288Z,30.35
2023-05-04T11:02:30.323Z,29.63
2023-05-04T11:07:38.849Z,29.03
2023-05-04T11:12:43.840Z,28.49
2023-05-04T11:17:55.456Z,27.96
2023-05-04T11:22:58.992Z,27.61
2023-05-04T11:28:01.834Z,27.24
2023-05-04T11:33:14.587Z,27.22
2023-05-04T11:38:23.119Z,27.15
2023-05-04T11:43:25.998Z,27.09
2023-05-04T11:48:32.369Z,26.97
2023-05-04T11:53:39.576Z,27.02
2023-05-04T11:58:42.542Z,27.05
2023-05-04T12:03:53.754Z,26.88
2023-05-04T12:09:02.704Z,26.89
2023-05-04T12:14:07.258Z,26.64
2023-05-04T12:19:13.335Z,26.61
2023-05-04T12:24:16.267Z,26.52
2023-05-04T12:29:18.784Z,26.57
2023-05-04T12:34:21.448Z,26.43
2023-05-04T12:39:24.354Z,26.39
2023-05-04T12:44:27.054Z,26.27
2023-05-04T12:49:29.592Z,26.05
2023-05-04T12:54:32.133Z,26.01
2023-05-04T12:59:34.616Z,26.05
2023-05-04T13:04:37.188Z,25.78
2023-05-04T13:09:40.367Z,25.63
2023-05-04T13:14:42.838Z,25.58
2023-05-04T13:19:45.263Z,25.62
2023-05-04T13:24:47.658Z,25.46
2023-05-04T13:29:50.356Z,25.32
2023-05-04T13:34:52.986Z,25.00
2023-05-04T13:39:55.537Z,24.90
2023-05-04T13:44:58.320Z,24.75
2023-05-04T13:50:00.975Z,24.66
2023-05-04T13:55:04.183Z,24.60
2023-05-04T14:00:08.762Z,24.62
2023-05-04T14:05:14.355Z,24.59
2023-05-04T14:10:17.066Z,24.61
2023-05-04T14:15:23.020Z,24.60
2023-05-04T14:20:25.707Z,24.64
2023-05-04T14:25:28.300Z,24.53
2023-05-04T14:30:31.905Z,24.43
2023-05-04T14:35:37.650Z,24.31
2023-05-04T14:40:40.338Z,24.23
2023-05-04T14:45:43.117Z,24.18
2023-05-04T14:50:45.629Z,24.10
2023-05-04T14:55:48.674Z,23.98
2023-05-04T15:00:51.248Z,23.93
2023-05-04T15:05:53.654Z,23.84
2023-05-04T15:10:59.605Z,23.77
2023-05-04T15:16:02.328Z,23.65
2023-05-04T15:21:04.935Z,23.53
2023-05-04T15:26:07.408Z,23.41
2023-05-04T15:31:10.518Z,23.30
2023-05-04T15:36:13.031Z,23.10
2023-05-04T15:41:15.502Z,22.94
2023-05-04T15:46:17.953Z,22.79
2023-05-04T15:51:21.238Z,22.67
2023-05-04T15:56:23.881Z,22.53
2023-05-04T16:01:26.495Z,22.38
2023-05-04T16:06:29.364Z,22.26
2023-05-04T16:11:33.405Z,22.08
2023-05-04T16:16:35.951Z,21.89
2023-05-04T16:21:38.738Z,21.67
2023-05-04T16:26:41.404Z,21.48
2023-05-04T16:31:47.681Z,21.27
2023-05-04T16:36:50.141Z,21.12
2023-05-04T16:41:52.724Z,21.08
2023-05-04T16:46:55.409Z,20.98
2023-05-04T16:51:57.996Z,20.90
2023-05-04T16:57:00.627Z,20.76
2023-05-04T17:02:03.327Z,20.71
2023-05-04T17:07:06.467Z,20.68
2023-05-04T17:12:09.773Z,20.57
2023-05-04T17:17:12.208Z,20.46
2023-05-04T17:22:14.799Z,20.39
2023-05-04T17:27:17.324Z,20.23
2023-05-04T17:32:20.029Z,20.13
2023-05-04T17:37:22.611Z,20.10
2023-05-04T17:42:25.089Z,19.91
2023-05-04T17:47:27.590Z,19.64
2023-05-04T17:52:30.076Z,19.47
2023-05-04T17:57:32.720Z,19.35
2023-05-04T18:02:35.277Z,19.34
2023-05-04T18:07:38.013Z,19.39
2023-05-04T18:12:40.853Z,19.37
2023-05-04T18:17:43.731Z,19.09
2023-05-04T18:22:47.091Z,18.94
2023-05-04T18:27:49.772Z,18.90
2023-05-04T18:32:52.324Z,18.83
2023-05-04T18:37:54.867Z,18.82
2023-05-04T18:42:57.411Z,18.67
2023-05-04T18:47:59.982Z,18.47
2023-05-04T18:53:05.590Z,18.28
2023-05-04T18:58:08.170Z,18.12
2023-05-04T19:03:10.665Z,18.03
2023-05-04T19:08:13.226Z,18.04
2023-05-04T19:13:16.684Z,18.02
2023-05-04T19:18:19.375Z,17.92
2023-05-04T19:23:22.256Z,17.86
2023-05-04T19:28:24.821Z,17.79
2023-05-04T19:33:40.538Z,17.63
2023-05-04T19:38:50.155Z,17.44
2023-05-04T19:43:52.894Z,17.23
2023-05-04T19:48:55.426Z,17.00
2023-05-04T19:53:57.958Z,16.82
2023-05-04T19:59:00.822Z,16.69
2023-05-04T20:04:03.468Z,16.60
2023-05-04T20:09:05.934Z,16.64
2023-05-04T20:14:08.425Z,16.70
2023-05-04T20:19:10.999Z,16.70
2023-05-04T20:24:13.676Z,16.67
2023-05-04T20:29:16.845Z,16.63
2023-05-04T20:34:19.405Z,16.51
2023-05-04T20:39:21.965Z,16.34
2023-05-04T20:44:24.637Z,16.22
2023-05-04T20:49:27.163Z,16.13
2023-05-04T20:54:29.689Z,16.06
2023-05-04T20:59:32.223Z,15.99
2023-05-04T21:04:34.712Z,15.93
2023-05-04T21:09:37.305Z,15.87
2023-05-04T21:14:39.829Z,15.83
2023-05-04T21:19:42.532Z,15.79
2023-05-04T21:24:46.823Z,15.81
2023-05-04T21:29:49.214Z,15.84
2023-05-04T21:34:55.349Z,15.84
2023-05-04T21:39:57.833Z,15.98
2023-05-04T21:45:00.437Z,15.96
2023-05-04T21:50:04.194Z,15.93
2023-05-04T21:55:07.540Z,15.88
2023-05-04T22:00:18.108Z,15.86
2023-05-04T22:05:23.582Z,15.85
2023-05-04T22:10:26.083Z,15.82
2023-05-04T22:15:38.237Z,15.72
2023-05-04T22:20:48.998Z,15.66
2023-05-04T22:25:51.738Z,15.55
2023-05-04T22:30:54.142Z,15.41
2023-05-04T22:35:56.514Z,15.38
2023-05-04T22:40:58.895Z,15.39
2023-05-04T22:46:01.368Z,15.39
2023-05-04T22:51:03.905Z,15.38
2023-05-04T22:56:06.497Z,15.37
2023-05-04T23:01:13.394Z,15.40
2023-05-04T23:06:15.974Z,15.38
2023-05-04T23:11:22.248Z,15.43
2023-05-04T23:16:24.672Z,15.43
2023-05-04T23:21:27.679Z,15.43
2023-05-04T23:26:30.148Z,15.45
2023-05-04T23:31:32.617Z,15.42
2023-05-04T23:36:35.017Z,15.35
2023-05-04T23:41:37.476Z,15.36
2023-05-04T23:46:39.859Z,15.36
2023-05-04T23:51:42.253Z,15.30
2023-05-04T23:56:44.611Z,14.89
